sensor_id;sensor_type;location;lat;lon;timestamp;P1;durP1;ratioP1;P2;durP2;ratioP2
44143;SDS011;68165;51.920;4.492;2023-06-26T00:00:18;8.77;;;3.22;;
44143;SDS011;68165;51.920;4.492;2023-06-26T00:02:43;7.10;;;2.83;;
44143;SDS011;68165;51.920;4.492;2023-06-26T00:05:09;11.00;;;3.22;;
44143;SDS011;68165;51.920;4.492;2023-06-26T00:07:35;9.27;;;3.20;;
44143;SDS011;68165;51.920;4.492;2023-06-26T00:10:01;5.65;;;2.70;;
44143;SDS011;68165;51.920;4.492;2023-06-26T00:12:28;6.97;;;2.80;;
44143;SDS011;68165;51.920;4.492;2023-06-26T00:14:54;7.60;;;2.80;;
44143;SDS011;68165;51.920;4.492;2023-06-26T00:17:20;6.25;;;2.40;;
44143;SDS011;68165;51.920;4.492;2023-06-26T00:19:46;6.75;;;2.53;;
44143;SDS011;68165;51.920;4.492;2023-06-26T00:22:11;6.63;;;2.33;;
44143;SDS011;68165;51.920;4.492;2023-06-26T00:24:37;5.38;;;2.20;;
44143;SDS011;68165;51.920;4.492;2023-06-26T00:27:02;5.68;;;2.25;;
44143;SDS011;68165;51.920;4.492;2023-06-26T00:29:28;5.90;;;3.03;;
44143;SDS011;68165;51.920;4.492;2023-06-26T00:31:53;7.47;;;2.03;;
44143;SDS011;68165;51.920;4.492;2023-06-26T00:34:18;6.93;;;2.50;;
44143;SDS011;68165;51.920;4.492;2023-06-26T00:36:44;9.70;;;2.65;;
44143;SDS011;68165;51.920;4.492;2023-06-26T00:39:10;6.80;;;2.05;;
44143;SDS011;68165;51.920;4.492;2023-06-26T00:41:36;7.22;;;2.50;;
44143;SDS011;68165;51.920;4.492;2023-06-26T00:44:03;8.73;;;2.10;;
44143;SDS011;68165;51.920;4.492;2023-06-26T00:46:29;7.68;;;2.40;;
44143;SDS011;68165;51.920;4.492;2023-06-26T00:48:54;12.48;;;2.60;;
44143;SDS011;68165;51.920;4.492;2023-06-26T00:51:20;9.23;;;2.28;;
44143;SDS011;68165;51.920;4.492;2023-06-26T00:53:46;12.75;;;2.40;;
44143;SDS011;68165;51.920;4.492;2023-06-26T00:56:13;11.55;;;2.50;;
44143;SDS011;68165;51.920;4.492;2023-06-26T00:58:40;10.10;;;2.30;;
44143;SDS011;68165;51.920;4.492;2023-06-26T01:01:05;9.73;;;2.60;;
44143;SDS011;68165;51.920;4.492;2023-06-26T01:03:33;12.40;;;2.50;;
44143;SDS011;68165;51.920;4.492;2023-06-26T01:05:59;10.90;;;2.30;;
44143;SDS011;68165;51.920;4.492;2023-06-26T01:08:25;13.82;;;2.90;;
44143;SDS011;68165;51.920;4.492;2023-06-26T01:10:52;8.35;;;2.55;;
44143;SDS011;68165;51.920;4.492;2023-06-26T01:13:17;10.05;;;2.63;;
44143;SDS011;68165;51.920;4.492;2023-06-26T01:15:43;9.50;;;2.97;;
44143;SDS011;68165;51.920;4.492;2023-06-26T01:18:08;9.73;;;2.55;;
44143;SDS011;68165;51.920;4.492;2023-06-26T01:20:37;8.43;;;3.00;;
44143;SDS011;68165;51.920;4.492;2023-06-26T01:28:17;9.02;;;2.75;;
44143;SDS011;68165;51.920;4.492;2023-06-26T01:30:45;10.57;;;3.28;;
44143;SDS011;68165;51.920;4.492;2023-06-26T01:33:12;14.20;;;3.13;;
44143;SDS011;68165;51.920;4.492;2023-06-26T01:35:38;12.60;;;3.33;;
44143;SDS011;68165;51.920;4.492;2023-06-26T01:38:14;10.82;;;3.40;;
44143;SDS011;68165;51.920;4.492;2023-06-26T01:40:41;9.27;;;3.15;;
44143;SDS011;68165;51.920;4.492;2023-06-26T01:43:08;7.60;;;3.00;;
44143;SDS011;68165;51.920;4.492;2023-06-26T01:45:40;8.95;;;2.80;;
44143;SDS011;68165;51.920;4.492;2023-06-26T01:48:07;12.52;;;2.88;;
44143;SDS011;68165;51.920;4.492;2023-06-26T01:50:36;9.23;;;2.78;;
44143;SDS011;68165;51.920;4.492;2023-06-26T01:53:10;14.52;;;3.22;;
44143;SDS011;68165;51.920;4.492;2023-06-26T01:58:06;12.95;;;3.30;;
44143;SDS011;68165;51.920;4.492;2023-06-26T02:00:31;12.65;;;3.65;;
44143;SDS011;68165;51.920;4.492;2023-06-26T02:02:58;13.02;;;3.17;;
44143;SDS011;68165;51.920;4.492;2023-06-26T02:05:23;8.90;;;3.28;;
44143;SDS011;68165;51.920;4.492;2023-06-26T02:07:49;13.88;;;3.13;;
44143;SDS011;68165;51.920;4.492;2023-06-26T02:10:16;15.02;;;3.42;;
44143;SDS011;68165;51.920;4.492;2023-06-26T02:12:41;11.50;;;3.22;;
44143;SDS011;68165;51.920;4.492;2023-06-26T02:15:07;11.02;;;2.70;;
44143;SDS011;68165;51.920;4.492;2023-06-26T02:17:33;12.32;;;3.15;;
44143;SDS011;68165;51.920;4.492;2023-06-26T02:19:58;10.25;;;3.13;;
44143;SDS011;68165;51.920;4.492;2023-06-26T02:22:24;11.38;;;2.88;;
44143;SDS011;68165;51.920;4.492;2023-06-26T02:24:49;17.50;;;3.42;;
44143;SDS011;68165;51.920;4.492;2023-06-26T02:27:14;12.00;;;3.50;;
44143;SDS011;68165;51.920;4.492;2023-06-26T02:29:40;12.13;;;2.70;;
44143;SDS011;68165;51.920;4.492;2023-06-26T02:32:06;14.63;;;3.17;;
44143;SDS011;68165;51.920;4.492;2023-06-26T02:34:31;10.13;;;2.45;;
44143;SDS011;68165;51.920;4.492;2023-06-26T02:36:58;9.65;;;2.65;;
44143;SDS011;68165;51.920;4.492;2023-06-26T02:39:23;10.38;;;2.72;;
44143;SDS011;68165;51.920;4.492;2023-06-26T02:41:49;11.30;;;2.88;;
44143;SDS011;68165;51.920;4.492;2023-06-26T02:44:14;14.30;;;2.97;;
44143;SDS011;68165;51.920;4.492;2023-06-26T02:46:40;10.05;;;3.00;;
44143;SDS011;68165;51.920;4.492;2023-06-26T02:49:05;13.35;;;3.03;;
44143;SDS011;68165;51.920;4.492;2023-06-26T02:51:31;14.77;;;3.38;;
44143;SDS011;68165;51.920;4.492;2023-06-26T02:53:58;11.68;;;3.00;;
44143;SDS011;68165;51.920;4.492;2023-06-26T02:56:23;10.75;;;3.10;;
44143;SDS011;68165;51.920;4.492;2023-06-26T02:58:48;9.63;;;2.90;;
44143;SDS011;68165;51.920;4.492;2023-06-26T03:01:14;11.43;;;2.95;;
44143;SDS011;68165;51.920;4.492;2023-06-26T03:03:40;14.90;;;3.22;;
44143;SDS011;68165;51.920;4.492;2023-06-26T03:06:06;14.32;;;3.28;;
44143;SDS011;68165;51.920;4.492;2023-06-26T03:08:32;15.10;;;3.53;;
44143;SDS011;68165;51.920;4.492;2023-06-26T03:10:58;13.35;;;2.72;;
44143;SDS011;68165;51.920;4.492;2023-06-26T03:13:23;13.48;;;3.65;;
44143;SDS011;68165;51.920;4.492;2023-06-26T03:15:48;13.98;;;2.50;;
44143;SDS011;68165;51.920;4.492;2023-06-26T03:18:14;15.93;;;3.83;;
44143;SDS011;68165;51.920;4.492;2023-06-26T03:20:39;11.63;;;3.28;;
44143;SDS011;68165;51.920;4.492;2023-06-26T03:23:05;12.43;;;3.03;;
44143;SDS011;68165;51.920;4.492;2023-06-26T03:25:30;10.57;;;2.90;;
44143;SDS011;68165;51.920;4.492;2023-06-26T03:27:56;12.02;;;2.65;;
44143;SDS011;68165;51.920;4.492;2023-06-26T03:30:21;11.98;;;2.80;;
44143;SDS011;68165;51.920;4.492;2023-06-26T03:32:46;8.00;;;2.47;;
44143;SDS011;68165;51.920;4.492;2023-06-26T03:35:12;15.07;;;3.33;;
44143;SDS011;68165;51.920;4.492;2023-06-26T03:37:37;12.38;;;3.38;;
44143;SDS011;68165;51.920;4.492;2023-06-26T03:40:03;10.88;;;3.47;;
44143;SDS011;68165;51.920;4.492;2023-06-26T03:42:29;14.02;;;3.30;;
44143;SDS011;68165;51.920;4.492;2023-06-26T03:44:56;11.73;;;3.28;;
44143;SDS011;68165;51.920;4.492;2023-06-26T03:47:21;9.13;;;3.00;;
44143;SDS011;68165;51.920;4.492;2023-06-26T03:49:46;14.70;;;2.80;;
44143;SDS011;68165;51.920;4.492;2023-06-26T03:52:12;11.18;;;2.80;;
44143;SDS011;68165;51.920;4.492;2023-06-26T03:54:37;13.27;;;2.88;;
44143;SDS011;68165;51.920;4.492;2023-06-26T03:57:02;9.10;;;2.65;;
44143;SDS011;68165;51.920;4.492;2023-06-26T03:59:28;9.60;;;3.10;;
44143;SDS011;68165;51.920;4.492;2023-06-26T04:01:54;10.43;;;2.58;;
44143;SDS011;68165;51.920;4.492;2023-06-26T04:04:21;11.65;;;3.17;;
44143;SDS011;68165;51.920;4.492;2023-06-26T04:06:47;7.78;;;2.65;;
44143;SDS011;68165;51.920;4.492;2023-06-26T04:09:12;7.85;;;2.15;;
44143;SDS011;68165;51.920;4.492;2023-06-26T04:11:37;12.30;;;2.75;;
44143;SDS011;68165;51.920;4.492;2023-06-26T04:14:02;8.88;;;2.10;;
44143;SDS011;68165;51.920;4.492;2023-06-26T04:16:28;12.07;;;3.42;;
44143;SDS011;68165;51.920;4.492;2023-06-26T04:18:53;9.98;;;2.58;;
44143;SDS011;68165;51.920;4.492;2023-06-26T04:21:21;7.60;;;2.60;;
44143;SDS011;68165;51.920;4.492;2023-06-26T04:23:48;11.65;;;2.58;;
44143;SDS011;68165;51.920;4.492;2023-06-26T04:26:14;6.55;;;2.10;;
44143;SDS011;68165;51.920;4.492;2023-06-26T04:28:39;8.35;;;2.67;;
44143;SDS011;68165;51.920;4.492;2023-06-26T04:31:05;14.40;;;2.65;;
44143;SDS011;68165;51.920;4.492;2023-06-26T04:33:30;9.23;;;2.40;;
44143;SDS011;68165;51.920;4.492;2023-06-26T04:35:56;5.90;;;2.15;;
44143;SDS011;68165;51.920;4.492;2023-06-26T04:38:21;5.53;;;2.03;;
44143;SDS011;68165;51.920;4.492;2023-06-26T04:40:47;6.43;;;2.08;;
44143;SDS011;68165;51.920;4.492;2023-06-26T04:43:13;5.47;;;2.00;;
44143;SDS011;68165;51.920;4.492;2023-06-26T04:45:38;6.05;;;1.70;;
44143;SDS011;68165;51.920;4.492;2023-06-26T04:48:04;7.93;;;2.25;;
44143;SDS011;68165;51.920;4.492;2023-06-26T04:50:32;7.97;;;2.45;;
44143;SDS011;68165;51.920;4.492;2023-06-26T04:52:58;6.00;;;1.85;;
44143;SDS011;68165;51.920;4.492;2023-06-26T04:55:24;11.57;;;2.70;;
44143;SDS011;68165;51.920;4.492;2023-06-26T04:57:50;7.05;;;1.63;;
44143;SDS011;68165;51.920;4.492;2023-06-26T05:00:16;8.10;;;2.50;;
44143;SDS011;68165;51.920;4.492;2023-06-26T05:02:41;7.10;;;2.00;;
44143;SDS011;68165;51.920;4.492;2023-06-26T05:05:08;7.35;;;2.08;;
44143;SDS011;68165;51.920;4.492;2023-06-26T05:07:35;6.68;;;1.42;;
44143;SDS011;68165;51.920;4.492;2023-06-26T05:10:01;5.65;;;2.35;;
44143;SDS011;68165;51.920;4.492;2023-06-26T05:12:26;7.00;;;2.28;;
44143;SDS011;68165;51.920;4.492;2023-06-26T05:14:51;6.53;;;1.85;;
44143;SDS011;68165;51.920;4.492;2023-06-26T05:17:17;5.50;;;2.10;;
44143;SDS011;68165;51.920;4.492;2023-06-26T05:19:42;6.03;;;2.08;;
44143;SDS011;68165;51.920;4.492;2023-06-26T05:22:08;12.27;;;2.25;;
44143;SDS011;68165;51.920;4.492;2023-06-26T05:24:37;5.00;;;1.67;;
44143;SDS011;68165;51.920;4.492;2023-06-26T05:27:03;5.63;;;1.90;;
44143;SDS011;68165;51.920;4.492;2023-06-26T05:29:30;6.15;;;1.90;;
44143;SDS011;68165;51.920;4.492;2023-06-26T05:31:56;9.02;;;2.00;;
44143;SDS011;68165;51.920;4.492;2023-06-26T05:34:22;7.75;;;1.70;;
44143;SDS011;68165;51.920;4.492;2023-06-26T05:36:49;5.53;;;1.63;;
44143;SDS011;68165;51.920;4.492;2023-06-26T05:39:16;2.47;;;1.10;;
44143;SDS011;68165;51.920;4.492;2023-06-26T05:41:43;6.03;;;1.20;;
44143;SDS011;68165;51.920;4.492;2023-06-26T05:44:09;7.22;;;1.67;;
44143;SDS011;68165;51.920;4.492;2023-06-26T05:46:34;7.03;;;1.45;;
44143;SDS011;68165;51.920;4.492;2023-06-26T05:49:01;5.35;;;1.15;;
44143;SDS011;68165;51.920;4.492;2023-06-26T05:51:27;4.30;;;0.98;;
44143;SDS011;68165;51.920;4.492;2023-06-26T05:53:53;4.25;;;1.50;;
44143;SDS011;68165;51.920;4.492;2023-06-26T05:56:19;6.63;;;0.93;;
44143;SDS011;68165;51.920;4.492;2023-06-26T05:58:45;12.50;;;1.13;;
44143;SDS011;68165;51.920;4.492;2023-06-26T06:01:11;5.30;;;1.25;;
44143;SDS011;68165;51.920;4.492;2023-06-26T06:03:36;3.70;;;0.82;;
44143;SDS011;68165;51.920;4.492;2023-06-26T06:06:02;7.28;;;1.00;;
44143;SDS011;68165;51.920;4.492;2023-06-26T06:08:28;9.07;;;1.13;;
44143;SDS011;68165;51.920;4.492;2023-06-26T06:10:55;4.82;;;1.05;;
44143;SDS011;68165;51.920;4.492;2023-06-26T06:13:20;3.55;;;1.17;;
44143;SDS011;68165;51.920;4.492;2023-06-26T06:15:46;4.75;;;0.95;;
44143;SDS011;68165;51.920;4.492;2023-06-26T06:18:11;4.50;;;0.88;;
44143;SDS011;68165;51.920;4.492;2023-06-26T06:20:36;5.13;;;1.20;;
44143;SDS011;68165;51.920;4.492;2023-06-26T06:23:02;10.10;;;1.33;;
44143;SDS011;68165;51.920;4.492;2023-06-26T06:25:27;4.80;;;1.00;;
44143;SDS011;68165;51.920;4.492;2023-06-26T06:27:52;6.38;;;0.75;;
44143;SDS011;68165;51.920;4.492;2023-06-26T06:30:18;5.63;;;1.30;;
44143;SDS011;68165;51.920;4.492;2023-06-26T06:32:43;4.63;;;1.08;;
44143;SDS011;68165;51.920;4.492;2023-06-26T06:35:09;6.18;;;1.08;;
44143;SDS011;68165;51.920;4.492;2023-06-26T06:37:37;6.35;;;1.33;;
44143;SDS011;68165;51.920;4.492;2023-06-26T06:40:03;6.32;;;1.00;;
44143;SDS011;68165;51.920;4.492;2023-06-26T06:42:31;5.15;;;1.10;;
44143;SDS011;68165;51.920;4.492;2023-06-26T06:44:56;3.58;;;0.90;;
44143;SDS011;68165;51.920;4.492;2023-06-26T06:47:21;5.65;;;1.38;;
44143;SDS011;68165;51.920;4.492;2023-06-26T06:49:47;9.38;;;0.98;;
44143;SDS011;68165;51.920;4.492;2023-06-26T06:52:12;5.15;;;1.00;;
44143;SDS011;68165;51.920;4.492;2023-06-26T06:54:50;7.10;;;1.60;;
44143;SDS011;68165;51.920;4.492;2023-06-26T06:57:17;4.32;;;1.33;;
44143;SDS011;68165;51.920;4.492;2023-06-26T06:59:43;4.15;;;0.80;;
44143;SDS011;68165;51.920;4.492;2023-06-26T07:02:08;6.57;;;0.80;;
44143;SDS011;68165;51.920;4.492;2023-06-26T07:04:33;5.57;;;1.13;;
44143;SDS011;68165;51.920;4.492;2023-06-26T07:06:58;10.43;;;1.10;;
44143;SDS011;68165;51.920;4.492;2023-06-26T07:09:24;6.68;;;1.52;;
44143;SDS011;68165;51.920;4.492;2023-06-26T07:11:49;5.97;;;1.02;;
44143;SDS011;68165;51.920;4.492;2023-06-26T07:14:14;8.18;;;1.70;;
44143;SDS011;68165;51.920;4.492;2023-06-26T07:16:40;3.92;;;0.90;;
44143;SDS011;68165;51.920;4.492;2023-06-26T07:19:05;5.35;;;1.02;;
44143;SDS011;68165;51.920;4.492;2023-06-26T07:21:31;6.68;;;1.55;;
44143;SDS011;68165;51.920;4.492;2023-06-26T07:23:56;5.88;;;1.10;;
44143;SDS011;68165;51.920;4.492;2023-06-26T07:26:21;6.78;;;0.90;;
44143;SDS011;68165;51.920;4.492;2023-06-26T07:28:47;2.78;;;0.85;;
44143;SDS011;68165;51.920;4.492;2023-06-26T07:31:13;6.18;;;1.15;;
44143;SDS011;68165;51.920;4.492;2023-06-26T07:33:39;5.15;;;0.98;;
44143;SDS011;68165;51.920;4.492;2023-06-26T07:36:05;8.35;;;1.17;;
44143;SDS011;68165;51.920;4.492;2023-06-26T07:38:32;6.80;;;0.88;;
44143;SDS011;68165;51.920;4.492;2023-06-26T07:40:57;9.40;;;1.20;;
44143;SDS011;68165;51.920;4.492;2023-06-26T07:43:23;7.97;;;1.10;;
44143;SDS011;68165;51.920;4.492;2023-06-26T07:45:48;4.53;;;1.10;;
44143;SDS011;68165;51.920;4.492;2023-06-26T07:48:16;12.55;;;1.55;;
44143;SDS011;68165;51.920;4.492;2023-06-26T07:50:41;6.13;;;1.10;;
44143;SDS011;68165;51.920;4.492;2023-06-26T07:53:07;6.38;;;0.98;;
44143;SDS011;68165;51.920;4.492;2023-06-26T07:55:34;4.95;;;1.00;;
44143;SDS011;68165;51.920;4.492;2023-06-26T07:58:00;6.93;;;1.15;;
44143;SDS011;68165;51.920;4.492;2023-06-26T08:00:26;14.63;;;1.33;;
44143;SDS011;68165;51.920;4.492;2023-06-26T08:02:52;5.95;;;1.05;;
44143;SDS011;68165;51.920;4.492;2023-06-26T08:05:17;7.25;;;1.10;;
44143;SDS011;68165;51.920;4.492;2023-06-26T08:07:43;10.85;;;1.30;;
44143;SDS011;68165;51.920;4.492;2023-06-26T08:10:08;7.00;;;1.10;;
44143;SDS011;68165;51.920;4.492;2023-06-26T08:12:34;5.78;;;1.08;;
44143;SDS011;68165;51.920;4.492;2023-06-26T08:14:59;6.45;;;1.15;;
44143;SDS011;68165;51.920;4.492;2023-06-26T08:17:28;5.55;;;1.48;;
44143;SDS011;68165;51.920;4.492;2023-06-26T08:19:54;4.13;;;1.65;;
44143;SDS011;68165;51.920;4.492;2023-06-26T08:22:19;3.67;;;1.08;;
44143;SDS011;68165;51.920;4.492;2023-06-26T08:24:44;10.75;;;1.10;;
44143;SDS011;68165;51.920;4.492;2023-06-26T08:27:10;3.47;;;1.30;;
44143;SDS011;68165;51.920;4.492;2023-06-26T08:29:35;6.47;;;1.20;;
44143;SDS011;68165;51.920;4.492;2023-06-26T08:32:00;5.13;;;1.48;;
44143;SDS011;68165;51.920;4.492;2023-06-26T08:34:27;6.30;;;0.90;;
44143;SDS011;68165;51.920;4.492;2023-06-26T08:36:52;4.35;;;1.10;;
44143;SDS011;68165;51.920;4.492;2023-06-26T08:39:18;5.25;;;1.00;;
44143;SDS011;68165;51.920;4.492;2023-06-26T08:41:43;3.80;;;0.95;;
44143;SDS011;68165;51.920;4.492;2023-06-26T08:44:09;7.38;;;1.75;;
44143;SDS011;68165;51.920;4.492;2023-06-26T08:46:35;9.20;;;1.83;;
44143;SDS011;68165;51.920;4.492;2023-06-26T08:49:01;7.35;;;1.23;;
44143;SDS011;68165;51.920;4.492;2023-06-26T08:51:33;8.38;;;1.13;;
44143;SDS011;68165;51.920;4.492;2023-06-26T08:54:01;3.33;;;1.08;;
44143;SDS011;68165;51.920;4.492;2023-06-26T08:56:36;7.57;;;1.33;;
44143;SDS011;68165;51.920;4.492;2023-06-26T08:59:06;3.78;;;0.80;;
44143;SDS011;68165;51.920;4.492;2023-06-26T09:01:33;5.00;;;1.25;;
44143;SDS011;68165;51.920;4.492;2023-06-26T09:03:58;7.35;;;1.55;;
44143;SDS011;68165;51.920;4.492;2023-06-26T09:06:24;7.70;;;1.13;;
44143;SDS011;68165;51.920;4.492;2023-06-26T09:08:49;7.07;;;1.52;;
44143;SDS011;68165;51.920;4.492;2023-06-26T09:11:15;4.80;;;1.10;;
44143;SDS011;68165;51.920;4.492;2023-06-26T09:13:40;4.53;;;0.90;;
44143;SDS011;68165;51.920;4.492;2023-06-26T09:16:06;6.65;;;1.35;;
44143;SDS011;68165;51.920;4.492;2023-06-26T09:18:33;5.43;;;1.50;;
44143;SDS011;68165;51.920;4.492;2023-06-26T09:20:58;5.82;;;1.25;;
44143;SDS011;68165;51.920;4.492;2023-06-26T09:23:24;5.50;;;1.23;;
44143;SDS011;68165;51.920;4.492;2023-06-26T09:25:49;8.40;;;1.35;;
44143;SDS011;68165;51.920;4.492;2023-06-26T09:28:19;10.50;;;1.67;;
44143;SDS011;68165;51.920;4.492;2023-06-26T09:30:45;5.85;;;1.27;;
44143;SDS011;68165;51.920;4.492;2023-06-26T09:33:15;7.35;;;1.15;;
44143;SDS011;68165;51.920;4.492;2023-06-26T09:35:42;2.85;;;1.05;;
44143;SDS011;68165;51.920;4.492;2023-06-26T09:38:08;7.10;;;1.50;;
44143;SDS011;68165;51.920;4.492;2023-06-26T09:40:33;4.53;;;1.20;;
44143;SDS011;68165;51.920;4.492;2023-06-26T09:43:07;6.43;;;1.35;;
44143;SDS011;68165;51.920;4.492;2023-06-26T09:45:33;8.93;;;1.63;;
44143;SDS011;68165;51.920;4.492;2023-06-26T09:48:01;12.00;;;1.60;;
44143;SDS011;68165;51.920;4.492;2023-06-26T09:50:28;4.85;;;1.15;;
44143;SDS011;68165;51.920;4.492;2023-06-26T09:52:54;5.45;;;0.93;;
44143;SDS011;68165;51.920;4.492;2023-06-26T09:55:20;6.78;;;1.70;;
44143;SDS011;68165;51.920;4.492;2023-06-26T09:57:52;3.78;;;1.00;;
44143;SDS011;68165;51.920;4.492;2023-06-26T10:00:21;9.15;;;1.40;;
44143;SDS011;68165;51.920;4.492;2023-06-26T10:02:46;8.10;;;1.63;;
44143;SDS011;68165;51.920;4.492;2023-06-26T10:05:12;5.35;;;1.17;;
44143;SDS011;68165;51.920;4.492;2023-06-26T10:07:38;6.53;;;1.48;;
44143;SDS011;68165;51.920;4.492;2023-06-26T10:10:04;8.27;;;1.90;;
44143;SDS011;68165;51.920;4.492;2023-06-26T10:12:32;5.57;;;1.10;;
44143;SDS011;68165;51.920;4.492;2023-06-26T10:14:59;6.90;;;1.50;;
44143;SDS011;68165;51.920;4.492;2023-06-26T10:17:30;5.95;;;1.00;;
44143;SDS011;68165;51.920;4.492;2023-06-26T10:20:02;5.50;;;1.00;;
44143;SDS011;68165;51.920;4.492;2023-06-26T10:22:29;8.38;;;1.67;;
44143;SDS011;68165;51.920;4.492;2023-06-26T10:24:59;4.75;;;0.85;;
44143;SDS011;68165;51.920;4.492;2023-06-26T10:27:33;10.63;;;1.00;;
44143;SDS011;68165;51.920;4.492;2023-06-26T10:30:05;4.97;;;0.90;;
44143;SDS011;68165;51.920;4.492;2023-06-26T10:32:35;4.78;;;0.85;;
44143;SDS011;68165;51.920;4.492;2023-06-26T10:35:01;4.47;;;1.42;;
44143;SDS011;68165;51.920;4.492;2023-06-26T10:37:44;7.10;;;1.10;;
44143;SDS011;68165;51.920;4.492;2023-06-26T10:40:11;3.20;;;0.80;;
44143;SDS011;68165;51.920;4.492;2023-06-26T10:42:38;4.88;;;1.02;;
44143;SDS011;68165;51.920;4.492;2023-06-26T10:47:39;2.35;;;0.77;;
44143;SDS011;68165;51.920;4.492;2023-06-26T10:53:07;4.18;;;0.90;;
44143;SDS011;68165;51.920;4.492;2023-06-26T10:55:33;7.30;;;1.02;;
44143;SDS011;68165;51.920;4.492;2023-06-26T10:57:59;4.32;;;0.90;;
44143;SDS011;68165;51.920;4.492;2023-06-26T11:00:24;4.53;;;0.77;;
44143;SDS011;68165;51.920;4.492;2023-06-26T11:02:50;2.10;;;0.73;;
44143;SDS011;68165;51.920;4.492;2023-06-26T11:05:32;4.10;;;0.93;;
44143;SDS011;68165;51.920;4.492;2023-06-26T11:10:41;2.97;;;0.90;;
44143;SDS011;68165;51.920;4.492;2023-06-26T11:13:13;4.65;;;0.80;;
44143;SDS011;68165;51.920;4.492;2023-06-26T11:15:39;6.07;;;0.90;;
44143;SDS011;68165;51.920;4.492;2023-06-26T11:18:07;2.10;;;0.70;;
44143;SDS011;68165;51.920;4.492;2023-06-26T11:20:33;3.55;;;0.80;;
44143;SDS011;68165;51.920;4.492;2023-06-26T11:22:58;2.92;;;0.70;;
44143;SDS011;68165;51.920;4.492;2023-06-26T11:25:24;3.72;;;0.80;;
44143;SDS011;68165;51.920;4.492;2023-06-26T11:27:50;12.40;;;1.27;;
44143;SDS011;68165;51.920;4.492;2023-06-26T11:30:25;5.20;;;0.90;;
44143;SDS011;68165;51.920;4.492;2023-06-26T11:32:51;6.00;;;1.20;;
44143;SDS011;68165;51.920;4.492;2023-06-26T11:35:23;3.17;;;0.85;;
44143;SDS011;68165;51.920;4.492;2023-06-26T11:37:56;4.45;;;1.05;;
44143;SDS011;68165;51.920;4.492;2023-06-26T11:40:22;5.57;;;1.30;;
44143;SDS011;68165;51.920;4.492;2023-06-26T11:42:52;5.07;;;1.27;;
44143;SDS011;68165;51.920;4.492;2023-06-26T11:45:19;2.35;;;0.90;;
44143;SDS011;68165;51.920;4.492;2023-06-26T11:47:45;5.70;;;1.20;;
44143;SDS011;68165;51.920;4.492;2023-06-26T11:50:17;3.25;;;0.70;;
44143;SDS011;68165;51.920;4.492;2023-06-26T11:52:43;4.93;;;1.10;;
44143;SDS011;68165;51.920;4.492;2023-06-26T11:55:09;5.13;;;0.88;;
44143;SDS011;68165;51.920;4.492;2023-06-26T11:57:35;5.18;;;0.70;;
44143;SDS011;68165;51.920;4.492;2023-06-26T12:00:14;5.88;;;0.90;;
44143;SDS011;68165;51.920;4.492;2023-06-26T12:02:41;4.22;;;0.80;;
44143;SDS011;68165;51.920;4.492;2023-06-26T12:05:07;2.70;;;1.00;;
44143;SDS011;68165;51.920;4.492;2023-06-26T12:07:33;5.93;;;1.10;;
44143;SDS011;68165;51.920;4.492;2023-06-26T12:10:00;4.10;;;1.00;;
44143;SDS011;68165;51.920;4.492;2023-06-26T12:12:26;4.55;;;1.00;;
44143;SDS011;68165;51.920;4.492;2023-06-26T12:14:52;2.97;;;0.95;;
44143;SDS011;68165;51.920;4.492;2023-06-26T12:17:17;1.92;;;0.60;;
44143;SDS011;68165;51.920;4.492;2023-06-26T12:19:47;3.10;;;0.50;;
44143;SDS011;68165;51.920;4.492;2023-06-26T12:22:16;5.18;;;0.75;;
44143;SDS011;68165;51.920;4.492;2023-06-26T12:24:42;7.07;;;0.90;;
44143;SDS011;68165;51.920;4.492;2023-06-26T12:27:09;3.45;;;0.80;;
44143;SDS011;68165;51.920;4.492;2023-06-26T12:29:38;2.50;;;0.98;;
44143;SDS011;68165;51.920;4.492;2023-06-26T12:32:08;2.30;;;0.77;;
44143;SDS011;68165;51.920;4.492;2023-06-26T12:34:36;1.88;;;0.70;;
44143;SDS011;68165;51.920;4.492;2023-06-26T12:37:04;6.60;;;1.20;;
44143;SDS011;68165;51.920;4.492;2023-06-26T12:39:50;5.65;;;1.23;;
44143;SDS011;68165;51.920;4.492;2023-06-26T12:42:21;4.38;;;0.93;;
44143;SDS011;68165;51.920;4.492;2023-06-26T12:44:49;5.50;;;1.63;;
44143;SDS011;68165;51.920;4.492;2023-06-26T12:47:15;7.97;;;1.50;;
44143;SDS011;68165;51.920;4.492;2023-06-26T12:49:42;3.08;;;0.90;;
44143;SDS011;68165;51.920;4.492;2023-06-26T12:52:11;2.38;;;0.98;;
44143;SDS011;68165;51.920;4.492;2023-06-26T12:54:41;3.45;;;0.90;;
44143;SDS011;68165;51.920;4.492;2023-06-26T12:57:08;4.40;;;0.80;;
44143;SDS011;68165;51.920;4.492;2023-06-26T12:59:36;5.75;;;1.20;;
44143;SDS011;68165;51.920;4.492;2023-06-26T13:02:02;3.92;;;0.77;;
44143;SDS011;68165;51.920;4.492;2023-06-26T13:04:28;3.80;;;1.25;;
44143;SDS011;68165;51.920;4.492;2023-06-26T13:06:54;2.95;;;0.70;;
44143;SDS011;68165;51.920;4.492;2023-06-26T13:09:20;2.55;;;0.70;;
44143;SDS011;68165;51.920;4.492;2023-06-26T13:11:46;4.78;;;1.20;;
44143;SDS011;68165;51.920;4.492;2023-06-26T13:14:12;3.90;;;0.95;;
44143;SDS011;68165;51.920;4.492;2023-06-26T13:16:38;5.93;;;1.40;;
44143;SDS011;68165;51.920;4.492;2023-06-26T13:19:03;7.63;;;1.30;;
44143;SDS011;68165;51.920;4.492;2023-06-26T13:21:29;6.03;;;1.23;;
44143;SDS011;68165;51.920;4.492;2023-06-26T13:23:55;5.25;;;1.45;;
44143;SDS011;68165;51.920;4.492;2023-06-26T13:26:21;6.55;;;1.00;;
44143;SDS011;68165;51.920;4.492;2023-06-26T13:28:47;4.75;;;0.80;;
44143;SDS011;68165;51.920;4.492;2023-06-26T13:31:13;5.13;;;1.05;;
44143;SDS011;68165;51.920;4.492;2023-06-26T13:33:39;4.10;;;0.68;;
44143;SDS011;68165;51.920;4.492;2023-06-26T13:36:04;2.60;;;0.80;;
44143;SDS011;68165;51.920;4.492;2023-06-26T13:38:30;4.05;;;1.05;;
44143;SDS011;68165;51.920;4.492;2023-06-26T13:40:58;3.13;;;1.33;;
44143;SDS011;68165;51.920;4.492;2023-06-26T13:43:25;4.20;;;1.10;;
44143;SDS011;68165;51.920;4.492;2023-06-26T13:45:52;3.97;;;1.00;;
44143;SDS011;68165;51.920;4.492;2023-06-26T13:48:17;3.40;;;0.70;;
44143;SDS011;68165;51.920;4.492;2023-06-26T13:50:43;2.90;;;1.05;;
44143;SDS011;68165;51.920;4.492;2023-06-26T13:53:08;2.63;;;0.77;;
44143;SDS011;68165;51.920;4.492;2023-06-26T13:55:34;4.10;;;0.77;;
44143;SDS011;68165;51.920;4.492;2023-06-26T13:58:00;5.18;;;1.35;;
44143;SDS011;68165;51.920;4.492;2023-06-26T14:00:30;3.80;;;0.80;;
44143;SDS011;68165;51.920;4.492;2023-06-26T14:02:56;3.75;;;0.90;;
44143;SDS011;68165;51.920;4.492;2023-06-26T14:05:22;3.35;;;1.02;;
44143;SDS011;68165;51.920;4.492;2023-06-26T14:07:47;2.50;;;0.77;;
44143;SDS011;68165;51.920;4.492;2023-06-26T14:10:13;3.25;;;0.95;;
44143;SDS011;68165;51.920;4.492;2023-06-26T14:12:40;4.50;;;1.00;;
44143;SDS011;68165;51.920;4.492;2023-06-26T14:15:06;2.45;;;1.00;;
44143;SDS011;68165;51.920;4.492;2023-06-26T14:17:31;4.90;;;0.93;;
44143;SDS011;68165;51.920;4.492;2023-06-26T14:19:58;4.60;;;1.00;;
44143;SDS011;68165;51.920;4.492;2023-06-26T14:22:24;3.72;;;0.90;;
44143;SDS011;68165;51.920;4.492;2023-06-26T14:24:50;4.65;;;0.95;;
44143;SDS011;68165;51.920;4.492;2023-06-26T14:27:15;1.73;;;0.75;;
44143;SDS011;68165;51.920;4.492;2023-06-26T14:29:40;3.13;;;0.93;;
44143;SDS011;68165;51.920;4.492;2023-06-26T14:32:06;3.42;;;0.90;;
44143;SDS011;68165;51.920;4.492;2023-06-26T14:34:32;2.30;;;0.45;;
44143;SDS011;68165;51.920;4.492;2023-06-26T14:36:57;5.75;;;0.70;;
44143;SDS011;68165;51.920;4.492;2023-06-26T14:39:23;7.15;;;1.00;;
44143;SDS011;68165;51.920;4.492;2023-06-26T14:41:48;2.55;;;0.73;;
44143;SDS011;68165;51.920;4.492;2023-06-26T14:44:14;3.28;;;0.82;;
44143;SDS011;68165;51.920;4.492;2023-06-26T14:46:40;3.28;;;0.85;;
44143;SDS011;68165;51.920;4.492;2023-06-26T14:49:05;5.47;;;1.48;;
44143;SDS011;68165;51.920;4.492;2023-06-26T14:51:30;6.60;;;1.30;;
44143;SDS011;68165;51.920;4.492;2023-06-26T14:53:56;4.43;;;0.98;;
44143;SDS011;68165;51.920;4.492;2023-06-26T14:56:21;3.38;;;0.80;;